createdAt,value
2023-05-20T00:02:27.398Z,77.90
2023-05-20T00:05:49.760Z,77.90
2023-05-20T00:09:12.030Z,77.90
2023-05-20T00:12:35.209Z,77.90
2023-05-20T00:15:57.556Z,77.90
2023-05-20T00:19:19.907Z,77.80
2023-05-20T00:22:42.267Z,77.90
2023-05-20T00:26:04.598Z,77.90
2023-05-20T00:29:28.465Z,77.90
2023-05-20T00:32:50.913Z,77.90
2023-05-20T00:36:13.258Z,77.90
2023-05-20T00:39:35.630Z,77.90
2023-05-20T00:42:57.962Z,77.80
2023-05-20T00:46:20.655Z,77.80
2023-05-20T00:49:43.662Z,77.80
2023-05-20T00:53:06.691Z,77.80
2023-05-20T00:56:29.940Z,77.80
2023-05-20T00:59:52.694Z,77.90
2023-05-20T01:03:15.830Z,77.90
2023-05-20T01:06:40.168Z,77.90
2023-05-20T01:10:02.824Z,77.90
2023-05-20T01:13:31.331Z,78.00
2023-05-20T01:16:55.669Z,78.00
2023-05-20T01:20:18.957Z,77.90
2023-05-20T01:23:42.044Z,77.90
2023-05-20T01:27:05.370Z,77.90
2023-05-20T01:30:30.792Z,77.90
2023-05-20T01:33:56.483Z,78.00
2023-05-20T01:37:20.072Z,78.00
2023-05-20T01:40:43.635Z,78.00
2023-05-20T01:44:07.136Z,78.00
2023-05-20T01:47:31.348Z,78.00
2023-05-20T01:50:53.693Z,78.00
2023-05-20T01:54:15.985Z,78.00
2023-05-20T01:57:38.244Z,78.00
2023-05-20T02:01:01.643Z,78.00
2023-05-20T02:04:24.033Z,78.00
2023-05-20T02:07:46.345Z,78.00
2023-05-20T02:11:08.818Z,78.00
2023-05-20T02:14:32.386Z,78.00
2023-05-20T02:17:54.919Z,78.00
2023-05-20T02:21:17.395Z,78.00
2023-05-20T02:24:39.773Z,78.00
2023-05-20T02:28:05.672Z,78.00
2023-05-20T02:31:28.048Z,78.00
2023-05-20T02:34:50.836Z,78.00
2023-05-20T02:38:13.519Z,78.00
2023-05-20T02:41:36.300Z,78.00
2023-05-20T02:44:58.884Z,78.00
2023-05-20T02:48:21.172Z,78.00
2023-05-20T02:51:43.452Z,78.00
2023-05-20T02:55:06.368Z,77.90
2023-05-20T02:58:29.423Z,77.80
2023-05-20T03:01:51.850Z,77.90
2023-05-20T03:05:14.597Z,77.80
2023-05-20T03:08:39.626Z,77.80
2023-05-20T03:12:02.049Z,77.80
2023-05-20T03:15:26.508Z,77.90
2023-05-20T03:18:49.784Z,77.90
2023-05-20T03:22:12.810Z,77.80
2023-05-20T03:25:35.969Z,77.80
2023-05-20T03:28:58.631Z,77.80
2023-05-20T03:32:21.334Z,77.80
2023-05-20T03:35:43.593Z,77.80
2023-05-20T03:39:06.026Z,77.80
2023-05-20T03:42:29.024Z,77.80
2023-05-20T03:45:51.703Z,77.80
2023-05-20T03:49:13.993Z,77.80
2023-05-20T03:52:37.167Z,77.80
2023-05-20T03:56:01.394Z,77.60
2023-05-20T03:59:24.134Z,77.80
2023-05-20T04:02:46.473Z,77.70
2023-05-20T04:06:13.987Z,77.60
2023-05-20T04:09:38.260Z,77.80
2023-05-20T04:13:00.714Z,77.80
2023-05-20T04:16:23.108Z,77.70
2023-05-20T04:19:46.229Z,77.60
2023-05-20T04:23:08.801Z,77.60
2023-05-20T04:26:31.661Z,77.60
2023-05-20T04:29:54.990Z,78.50
2023-05-20T04:33:18.588Z,77.60
2023-05-20T04:36:40.900Z,77.60
2023-05-20T04:40:06.658Z,78.40
2023-05-20T04:43:33.813Z,78.50
2023-05-20T04:46:57.978Z,77.60
2023-05-20T04:50:21.277Z,77.70
2023-05-20T04:53:46.261Z,77.80
2023-05-20T04:57:08.543Z,77.70
2023-05-20T05:00:30.814Z,78.50
2023-05-20T05:03:53.111Z,77.60
2023-05-20T05:07:16.772Z,77.70
2023-05-20T05:10:39.919Z,77.60
2023-05-20T05:14:02.891Z,77.60
2023-05-20T05:17:25.544Z,77.70
2023-05-20T05:20:47.925Z,77.60
2023-05-20T05:24:11.019Z,77.80
2023-05-20T05:27:33.777Z,77.60
2023-05-20T05:30:56.724Z,77.60
2023-05-20T05:34:19.076Z,77.60
2023-05-20T05:37:41.428Z,77.70
2023-05-20T05:41:05.302Z,77.70
2023-05-20T05:44:28.306Z,77.70
2023-05-20T05:47:50.714Z,77.80
2023-05-20T05:51:13.372Z,77.70
2023-05-20T05:54:35.731Z,77.80
2023-05-20T05:57:59.385Z,77.80
2023-05-20T06:01:23.858Z,77.80
2023-05-20T06:04:46.224Z,77.80
2023-05-20T06:08:08.796Z,77.90
2023-05-20T06:11:31.971Z,77.90
2023-05-20T06:14:54.351Z,78.80
2023-05-20T06:18:16.765Z,79.60
2023-05-20T06:21:39.298Z,79.00
2023-05-20T06:25:02.505Z,78.00
2023-05-20T06:28:30.029Z,77.70
2023-05-20T06:31:52.918Z,78.50
2023-05-20T06:35:15.573Z,79.10
2023-05-20T06:38:38.491Z,78.70
2023-05-20T06:42:01.587Z,78.40
2023-05-20T06:45:25.423Z,78.50
2023-05-20T06:48:51.862Z,79.10
2023-05-20T06:52:14.421Z,78.90
2023-05-20T06:55:38.426Z,79.30
2023-05-20T06:59:01.220Z,79.40
2023-05-20T07:02:25.667Z,79.50
2023-05-20T07:05:50.666Z,80.00
2023-05-20T07:09:14.362Z,80.40
2023-05-20T07:12:37.072Z,81.10
2023-05-20T07:16:00.203Z,80.30
2023-05-20T07:19:23.387Z,79.40
2023-05-20T07:22:46.354Z,80.60
2023-05-20T07:26:12.475Z,82.60
2023-05-20T07:29:38.124Z,82.70
2023-05-20T07:33:00.670Z,81.20
2023-05-20T07:36:23.237Z,81.00
2023-05-20T07:39:47.244Z,78.50
2023-05-20T07:43:09.865Z,79.60
2023-05-20T07:46:33.153Z,81.20
2023-05-20T07:49:55.774Z,81.00
2023-05-20T07:53:19.242Z,80.10
2023-05-20T07:56:41.516Z,79.00
2023-05-20T08:00:06.334Z,78.90
2023-05-20T08:03:39.324Z,79.40
2023-05-20T08:07:06.761Z,79.80
2023-05-20T08:10:46.892Z,79.10
2023-05-20T08:14:09.614Z,79.10
2023-05-20T08:17:38.793Z,77.60
2023-05-20T08:21:01.646Z,78.10
2023-05-20T08:24:24.636Z,77.10
2023-05-20T08:27:46.938Z,77.10
2023-05-20T08:31:10.864Z,78.10
2023-05-20T08:34:33.295Z,78.00
2023-05-20T08:37:56.113Z,77.80
2023-05-20T08:41:18.574Z,77.60
2023-05-20T08:44:44.807Z,77.40
2023-05-20T08:48:07.597Z,77.60
2023-05-20T08:51:32.842Z,77.40
2023-05-20T08:54:55.339Z,77.70
2023-05-20T08:58:19.409Z,77.60
2023-05-20T09:01:45.913Z,78.10
2023-05-20T09:05:11.089Z,78.40
2023-05-20T09:08:34.155Z,77.90
2023-05-20T09:11:56.554Z,77.60
2023-05-20T09:15:18.842Z,77.60
2023-05-20T09:18:41.675Z,77.60
2023-05-20T09:22:05.155Z,77.30
2023-05-20T09:25:27.571Z,78.50
2023-05-20T09:28:49.890Z,78.90
2023-05-20T09:32:14.096Z,78.80
2023-05-20T09:35:39.819Z,78.80
2023-05-20T09:39:05.168Z,79.00
2023-05-20T09:42:35.315Z,79.00
2023-05-20T09:45:59.600Z,79.10
2023-05-20T09:49:23.609Z,79.50
2023-05-20T09:52:46.955Z,79.90
2023-05-20T09:56:09.332Z,80.20
2023-05-20T09:59:32.684Z,80.40
2023-05-20T10:02:55.171Z,80.20
2023-05-20T10:07:06.592Z,81.10
2023-05-20T10:10:50.435Z,81.60
2023-05-20T10:14:21.605Z,81.80
2023-05-20T10:18:16.402Z,82.10
2023-05-20T10:21:38.792Z,81.60
2023-05-20T10:25:06.794Z,80.80
2023-05-20T10:28:31.150Z,80.20
2023-05-20T10:31:53.874Z,80.40
2023-05-20T10:35:22.499Z,80.00
2023-05-20T10:38:58.435Z,80.10
2023-05-20T10:42:29.641Z,79.70
2023-05-20T10:45:57.447Z,79.70
2023-05-20T10:49:22.308Z,79.40
2023-05-20T10:52:47.018Z,79.70
2023-05-20T10:56:19.784Z,79.30
2023-05-20T10:59:42.390Z,79.70
2023-05-20T11:03:06.874Z,77.90
2023-05-20T11:06:29.862Z,78.70
2023-05-20T11:09:52.327Z,78.90
2023-05-20T11:13:15.507Z,78.40
2023-05-20T11:16:37.997Z,77.90
2023-05-20T11:20:01.089Z,78.20
2023-05-20T11:23:23.760Z,78.40
2023-05-20T11:26:46.027Z,78.40
2023-05-20T11:30:09.031Z,78.40
2023-05-20T11:33:31.421Z,78.20
2023-05-20T11:36:57.866Z,78.50
2023-05-20T11:40:27.041Z,78.70
2023-05-20T11:43:59.587Z,78.10
2023-05-20T11:47:27.767Z,77.90
2023-05-20T11:50:50.224Z,78.40
2023-05-20T11:54:12.699Z,77.20
2023-05-20T11:57:35.014Z,78.80
2023-05-20T12:01:05.634Z,77.50
2023-05-20T12:04:40.202Z,78.10
2023-05-20T12:08:02.753Z,76.60
2023-05-20T12:11:25.121Z,77.30
2023-05-20T12:14:47.349Z,77.10
2023-05-20T12:18:10.094Z,78.00
2023-05-20T12:21:32.755Z,77.80
2023-05-20T12:24:55.536Z,77.00
2023-05-20T12:28:17.933Z,76.70
2023-05-20T12:31:40.380Z,78.10
2023-05-20T12:35:03.010Z,77.20
2023-05-20T12:38:25.359Z,77.50
2023-05-20T12:41:47.758Z,75.80
2023-05-20T12:45:10.430Z,73.50
2023-05-20T12:48:32.829Z,72.90
2023-05-20T12:51:55.345Z,72.50
2023-05-20T12:55:17.823Z,72.00
2023-05-20T12:58:40.106Z,72.10
2023-05-20T13:02:02.570Z,72.70
2023-05-20T13:05:25.127Z,75.40
2023-05-20T13:08:47.430Z,72.50
2023-05-20T13:12:10.046Z,72.70
2023-05-20T13:15:33.515Z,72.00
2023-05-20T13:18:56.084Z,72.60
2023-05-20T13:22:18.573Z,72.60
2023-05-20T13:25:41.169Z,73.00
2023-05-20T13:29:03.542Z,72.80
2023-05-20T13:32:25.846Z,73.00
2023-05-20T13:35:48.281Z,73.10
2023-05-20T13:39:11.279Z,73.00
2023-05-20T13:42:33.696Z,71.70
2023-05-20T13:45:56.141Z,72.00
2023-05-20T13:49:18.827Z,73.30
2023-05-20T13:52:41.141Z,76.20
2023-05-20T13:56:03.901Z,73.90
2023-05-20T13:59:27.424Z,73.90
2023-05-20T14:02:49.805Z,72.60
2023-05-20T14:06:12.294Z,74.30
2023-05-20T14:09:34.566Z,74.90
2023-05-20T14:12:59.000Z,76.50
2023-05-20T14:16:21.377Z,78.10
2023-05-20T14:19:43.751Z,77.80
2023-05-20T14:23:06.036Z,78.20
2023-05-20T14:26:28.690Z,77.50
2023-05-20T14:29:51.131Z,74.00
2023-05-20T14:33:13.480Z,73.20
2023-05-20T14:36:35.829Z,73.50
2023-05-20T14:39:58.269Z,74.10
2023-05-20T14:43:21.419Z,73.90
2023-05-20T14:46:43.715Z,73.30
2023-05-20T14:50:07.181Z,73.10
2023-05-20T14:53:29.523Z,73.60
2023-05-20T14:56:52.085Z,73.90
2023-05-20T15:00:14.618Z,73.90
2023-05-20T15:03:36.971Z,72.60
2023-05-20T15:06:59.394Z,73.60
2023-05-20T15:10:21.864Z,74.00
2023-05-20T15:13:46.461Z,73.90
2023-05-20T15:17:09.061Z,74.00
2023-05-20T15:20:31.524Z,74.40
2023-05-20T15:23:53.814Z,76.40
2023-05-20T15:27:16.250Z,77.50
2023-05-20T15:30:38.593Z,76.90
2023-05-20T15:34:00.994Z,77.40
2023-05-20T15:37:23.257Z,76.20
2023-05-20T15:40:45.664Z,77.60
2023-05-20T15:44:08.449Z,79.60
2023-05-20T15:47:30.859Z,79.30
2023-05-20T15:50:53.142Z,79.10
2023-05-20T15:54:15.494Z,79.40
2023-05-20T15:57:37.794Z,79.30
2023-05-20T16:01:00.241Z,79.30
2023-05-20T16:04:22.707Z,79.70
2023-05-20T16:07:46.843Z,79.70
2023-05-20T16:11:09.551Z,80.00
2023-05-20T16:14:31.933Z,80.30
2023-05-20T16:17:54.289Z,79.80
2023-05-20T16:21:16.635Z,80.60
2023-05-20T16:24:39.057Z,80.50
2023-05-20T16:28:01.442Z,80.70
2023-05-20T16:31:23.920Z,80.80
2023-05-20T16:34:47.558Z,81.00
2023-05-20T16:38:09.984Z,81.30
2023-05-20T16:41:32.450Z,81.40
2023-05-20T16:44:54.807Z,81.60
2023-05-20T16:48:17.170Z,81.80
2023-05-20T16:51:39.482Z,82.00
2023-05-20T16:55:04.734Z,82.20
2023-05-20T16:58:26.966Z,82.60
2023-05-20T17:01:49.275Z,82.70
2023-05-20T17:05:11.599Z,82.70
2023-05-20T17:08:33.963Z,82.30
2023-05-20T17:11:56.264Z,82.80
2023-05-20T17:15:18.573Z,84.50
2023-05-20T17:18:41.110Z,83.10
2023-05-20T17:22:03.494Z,83.40
2023-05-20T17:25:25.861Z,83.40
2023-05-20T17:28:48.239Z,83.40
2023-05-20T17:32:12.052Z,84.60
2023-05-20T17:35:34.476Z,84.20
2023-05-20T17:38:56.946Z,86.20
2023-05-20T17:42:19.318Z,84.60
2023-05-20T17:45:41.584Z,85.60
2023-05-20T17:49:03.834Z,85.00
2023-05-20T17:52:27.123Z,85.60
2023-05-20T17:55:49.544Z,85.50
2023-05-20T17:59:11.922Z,87.70
2023-05-20T18:02:34.350Z,84.30
2023-05-20T18:05:56.779Z,86.70
2023-05-20T18:09:19.057Z,86.70
2023-05-20T18:12:42.700Z,87.40
2023-05-20T18:16:05.548Z,87.10
2023-05-20T18:19:28.024Z,86.80
2023-05-20T18:22:52.371Z,86.70
2023-05-20T18:26:15.266Z,87.40
2023-05-20T18:29:37.557Z,86.20
2023-05-20T18:32:59.973Z,84.60
2023-05-20T18:36:22.332Z,85.60
2023-05-20T18:39:44.613Z,85.80
2023-05-20T18:43:06.902Z,86.70
2023-05-20T18:46:29.276Z,86.80
2023-05-20T18:49:51.616Z,87.70
2023-05-20T18:53:13.901Z,87.00
2023-05-20T18:56:36.323Z,87.30
2023-05-20T18:59:58.686Z,87.00
2023-05-20T19:03:23.431Z,86.40
2023-05-20T19:06:45.813Z,86.50
2023-05-20T19:10:08.822Z,86.20
2023-05-20T19:13:31.237Z,85.80
2023-05-20T19:16:53.773Z,85.80
2023-05-20T19:20:16.085Z,85.70
2023-05-20T19:23:38.432Z,85.50
2023-05-20T19:27:01.812Z,85.40
2023-05-20T19:30:24.070Z,85.30
2023-05-20T19:33:48.310Z,85.20
2023-05-20T19:37:10.861Z,85.40
2023-05-20T19:40:33.339Z,83.80
2023-05-20T19:43:55.656Z,84.50
2023-05-20T19:47:17.982Z,84.70
2023-05-20T19:50:40.360Z,84.70
2023-05-20T19:54:02.695Z,84.70
2023-05-20T19:57:25.027Z,84.80
2023-05-20T20:00:47.376Z,84.60
2023-05-20T20:04:09.647Z,84.70
2023-05-20T20:07:32.655Z,86.00
2023-05-20T20:10:55.024Z,87.20
2023-05-20T20:14:17.330Z,86.20
2023-05-20T20:17:46.040Z,85.30
2023-05-20T20:21:09.316Z,84.80
2023-05-20T20:24:31.580Z,84.10
2023-05-20T20:27:53.908Z,84.10
2023-05-20T20:31:16.208Z,83.70
2023-05-20T20:34:38.531Z,83.50
2023-05-20T20:38:01.427Z,83.60
2023-05-20T20:41:23.697Z,83.60
2023-05-20T20:44:48.365Z,83.50
2023-05-20T20:48:10.858Z,83.40
2023-05-20T20:51:33.218Z,83.30
2023-05-20T20:54:57.039Z,83.30
2023-05-20T20:58:19.450Z,84.10
2023-05-20T21:01:41.980Z,83.40
2023-05-20T21:05:04.508Z,83.50
2023-05-20T21:08:27.821Z,84.30
2023-05-20T21:11:50.158Z,85.60
2023-05-20T21:15:12.861Z,86.60
2023-05-20T21:18:35.154Z,87.10
2023-05-20T21:21:59.307Z,87.10
2023-05-20T21:25:21.695Z,87.10
2023-05-20T21:28:44.056Z,87.30
2023-05-20T21:32:06.714Z,87.10
2023-05-20T21:35:29.036Z,87.20
2023-05-20T21:38:51.426Z,87.10
2023-05-20T21:42:13.750Z,87.00
2023-05-20T21:45:36.463Z,86.90
2023-05-20T21:48:59.025Z,86.70
2023-05-20T21:52:21.320Z,86.60
2023-05-20T21:55:43.555Z,86.50
2023-05-20T21:59:05.925Z,86.50
2023-05-20T22:02:28.259Z,86.20
2023-05-20T22:05:50.626Z,86.20
2023-05-20T22:09:13.014Z,86.00
2023-05-20T22:12:38.419Z,85.80
2023-05-20T22:16:02.039Z,85.70
2023-05-20T22:19:24.486Z,85.70
2023-05-20T22:22:46.971Z,85.60
2023-05-20T22:26:09.987Z,85.50
2023-05-20T22:29:32.717Z,85.40
2023-05-20T22:32:55.027Z,85.20
2023-05-20T22:36:17.326Z,85.20
2023-05-20T22:39:39.687Z,85.10
2023-05-20T22:43:01.954Z,85.10
2023-05-20T22:46:25.188Z,85.00
2023-05-20T22:49:47.460Z,85.00
2023-05-20T22:53:09.806Z,84.80
2023-05-20T22:56:32.599Z,85.00
2023-05-20T22:59:55.593Z,84.90
2023-05-20T23:03:17.817Z,82.70
2023-05-20T23:06:40.190Z,82.60
2023-05-20T23:10:02.687Z,82.40
2023-05-20T23:13:25.012Z,82.40
2023-05-20T23:16:47.516Z,82.40
2023-05-20T23:20:11.222Z,82.40
2023-05-20T23:23:33.680Z,82.30
2023-05-20T23:26:56.010Z,82.40
2023-05-20T23:30:18.340Z,82.20
2023-05-20T23:33:40.736Z,82.10
2023-05-20T23:37:03.246Z,82.10
2023-05-20T23:40:26.029Z,82.00
2023-05-20T23:43:48.546Z,82.00
2023-05-20T23:47:13.352Z,81.90
2023-05-20T23:50:35.892Z,81.90
2023-05-20T23:53:58.262Z,81.90
2023-05-20T23:57:20.832Z,81.90
